createdAt,value
2022-11-30T00:00:21.944Z,74.30
2022-11-30T00:02:54.045Z,65.70
2022-11-30T00:05:21.063Z,58.53
2022-11-30T00:07:47.677Z,65.05
2022-11-30T00:10:14.292Z,65.20
2022-11-30T00:12:43.719Z,71.55
2022-11-30T00:15:14.043Z,66.63
2022-11-30T00:17:41.336Z,60.38
2022-11-30T00:20:08.690Z,74.75
2022-11-30T00:22:35.491Z,73.78
2022-11-30T00:25:04.616Z,69.45
2022-11-30T00:27:32.438Z,64.93
2022-11-30T00:29:59.290Z,70.45
2022-11-30T00:32:27.341Z,67.22
2022-11-30T00:34:54.035Z,63.50
2022-11-30T00:37:20.791Z,61.83
2022-11-30T00:39:47.379Z,59.70
2022-11-30T00:42:14.000Z,62.38
2022-11-30T00:44:40.559Z,60.70
2022-11-30T00:47:07.269Z,63.30
2022-11-30T00:49:36.686Z,56.65
2022-11-30T00:52:04.002Z,60.20
2022-11-30T00:54:30.551Z,64.28
2022-11-30T00:56:57.144Z,59.50
2022-11-30T00:59:23.684Z,59.53
2022-11-30T01:01:50.285Z,56.40
2022-11-30T01:04:16.853Z,65.72
2022-11-30T01:06:43.414Z,60.70
2022-11-30T01:09:10.042Z,52.45
2022-11-30T01:11:36.631Z,55.70
2022-11-30T01:14:03.389Z,57.75
2022-11-30T01:16:32.237Z,57.25
2022-11-30T01:18:59.027Z,63.20
2022-11-30T01:21:27.486Z,70.43
2022-11-30T01:23:54.638Z,61.53
2022-11-30T01:26:21.986Z,59.55
2022-11-30T01:28:55.416Z,70.32
2022-11-30T01:31:23.863Z,70.80
2022-11-30T01:33:52.102Z,67.93
2022-11-30T01:36:21.654Z,64.60
2022-11-30T01:38:50.672Z,68.32
2022-11-30T01:41:31.931Z,66.53
2022-11-30T01:44:20.350Z,60.65
2022-11-30T01:47:13.408Z,67.03
2022-11-30T01:49:43.361Z,70.65
2022-11-30T01:52:13.697Z,68.35
2022-11-30T01:54:46.467Z,69.43
2022-11-30T01:57:21.188Z,72.50
2022-11-30T01:59:47.762Z,66.82
2022-11-30T02:02:14.466Z,75.03
2022-11-30T02:04:41.340Z,68.18
2022-11-30T02:07:08.412Z,75.00
2022-11-30T02:09:40.125Z,67.72
2022-11-30T02:12:07.012Z,75.47
2022-11-30T02:14:46.931Z,72.78
2022-11-30T02:17:36.716Z,67.15
2022-11-30T02:20:28.334Z,75.65
2022-11-30T02:23:03.785Z,76.63
2022-11-30T02:25:48.118Z,72.78
2022-11-30T02:28:42.350Z,68.90
2022-11-30T02:31:10.809Z,69.28
2022-11-30T02:33:37.445Z,68.55
2022-11-30T02:36:04.271Z,68.28
2022-11-30T02:38:30.901Z,71.03
2022-11-30T02:40:57.837Z,61.65
2022-11-30T02:43:25.155Z,66.22
2022-11-30T02:46:00.659Z,66.05
2022-11-30T02:48:37.858Z,66.63
2022-11-30T02:51:04.753Z,57.60
2022-11-30T02:53:31.324Z,64.43
2022-11-30T02:55:57.866Z,58.25
2022-11-30T02:58:24.429Z,60.47
2022-11-30T03:00:51.041Z,64.57
2022-11-30T03:03:17.655Z,61.00
2022-11-30T03:05:44.220Z,63.67
2022-11-30T03:08:10.783Z,60.28
2022-11-30T03:10:37.339Z,57.30
2022-11-30T03:13:03.921Z,56.97
2022-11-30T03:15:30.656Z,56.25
2022-11-30T03:17:57.229Z,57.92
2022-11-30T03:20:23.779Z,57.13
2022-11-30T03:22:50.362Z,61.30
2022-11-30T03:25:16.971Z,58.65
2022-11-30T03:27:43.527Z,54.42
2022-11-30T03:30:11.049Z,55.95
2022-11-30T03:32:37.665Z,53.13
2022-11-30T03:35:04.478Z,56.25
2022-11-30T03:37:31.032Z,51.17
2022-11-30T03:39:58.525Z,51.88
2022-11-30T03:42:25.336Z,52.80
2022-11-30T03:44:51.874Z,56.03
2022-11-30T03:47:18.498Z,55.50
2022-11-30T03:49:45.030Z,52.42
2022-11-30T03:52:11.614Z,50.35
2022-11-30T03:54:38.150Z,54.40
2022-11-30T03:57:04.733Z,52.22
2022-11-30T03:59:31.278Z,50.53
2022-11-30T04:01:57.895Z,60.80
2022-11-30T04:04:24.615Z,53.47
2022-11-30T04:06:51.179Z,55.53
2022-11-30T04:09:19.034Z,52.70
2022-11-30T04:11:45.609Z,56.83
2022-11-30T04:14:12.251Z,56.25
2022-11-30T04:16:38.820Z,54.10
2022-11-30T04:19:05.368Z,52.92
2022-11-30T04:21:31.933Z,58.42
2022-11-30T04:23:58.493Z,57.30
2022-11-30T04:26:25.031Z,55.30
2022-11-30T04:28:51.604Z,59.10
2022-11-30T04:31:18.187Z,55.15
2022-11-30T04:33:44.782Z,54.53
2022-11-30T04:36:19.638Z,56.78
2022-11-30T04:38:46.557Z,50.90
2022-11-30T04:41:13.161Z,54.85
2022-11-30T04:43:39.742Z,53.78
2022-11-30T04:46:06.361Z,51.80
2022-11-30T04:48:33.199Z,55.08
2022-11-30T04:51:04.199Z,51.72
2022-11-30T04:53:30.775Z,50.55
2022-11-30T04:55:57.380Z,53.92
2022-11-30T04:58:23.992Z,53.28
2022-11-30T05:00:53.276Z,48.05
2022-11-30T05:03:19.829Z,43.97
2022-11-30T05:05:46.370Z,44.67
2022-11-30T05:08:12.924Z,46.05
2022-11-30T05:10:39.484Z,39.03
2022-11-30T05:13:06.046Z,42.17
2022-11-30T05:15:33.094Z,45.50
2022-11-30T05:18:00.927Z,46.35
2022-11-30T05:20:28.732Z,46.47
2022-11-30T05:22:55.369Z,45.95
2022-11-30T05:25:22.029Z,45.20
2022-11-30T05:27:48.596Z,50.53
2022-11-30T05:30:15.337Z,48.00
2022-11-30T05:32:41.944Z,50.30
2022-11-30T05:35:09.084Z,46.33
2022-11-30T05:37:35.663Z,45.10
2022-11-30T05:40:02.275Z,46.30
2022-11-30T05:42:28.867Z,45.13
2022-11-30T05:44:55.722Z,42.38
2022-11-30T05:47:22.281Z,45.80
2022-11-30T05:49:48.831Z,44.97
2022-11-30T05:52:15.404Z,42.72
2022-11-30T05:54:41.978Z,43.78
2022-11-30T05:57:08.536Z,44.95
2022-11-30T05:59:35.076Z,43.85
2022-11-30T06:02:01.762Z,45.72
2022-11-30T06:04:28.366Z,44.03
2022-11-30T06:06:57.633Z,44.63
2022-11-30T06:09:24.323Z,45.33
2022-11-30T06:11:51.012Z,47.75
2022-11-30T06:14:17.835Z,43.50
2022-11-30T06:16:45.138Z,48.55
2022-11-30T06:19:11.753Z,49.80
2022-11-30T06:21:38.384Z,46.15
2022-11-30T06:24:05.173Z,42.72
2022-11-30T06:26:31.727Z,51.17
2022-11-30T06:28:58.310Z,45.92
2022-11-30T06:31:24.895Z,46.38
2022-11-30T06:33:51.543Z,46.70
2022-11-30T06:36:22.982Z,44.35
2022-11-30T06:38:49.852Z,39.85
2022-11-30T06:41:16.611Z,43.70
2022-11-30T06:43:43.268Z,44.00
2022-11-30T06:46:09.965Z,40.63
2022-11-30T06:48:36.620Z,40.78
2022-11-30T06:51:07.788Z,39.28
2022-11-30T06:53:34.609Z,40.65
2022-11-30T06:56:10.060Z,39.90
2022-11-30T06:58:41.316Z,39.20
2022-11-30T07:01:09.231Z,38.90
2022-11-30T07:03:36.142Z,38.88
2022-11-30T07:06:07.287Z,36.83
2022-11-30T07:08:33.847Z,41.95
2022-11-30T07:11:00.477Z,38.22
2022-11-30T07:13:27.031Z,38.67
2022-11-30T07:15:53.615Z,41.63
2022-11-30T07:18:20.192Z,37.05
2022-11-30T07:20:46.751Z,40.80
2022-11-30T07:23:32.009Z,42.35
2022-11-30T07:26:09.459Z,48.40
2022-11-30T07:28:41.538Z,46.92
2022-11-30T07:31:22.717Z,36.55
2022-11-30T07:33:50.169Z,37.75
2022-11-30T07:36:18.030Z,40.25
2022-11-30T07:38:44.938Z,35.95
2022-11-30T07:41:11.613Z,35.80
2022-11-30T07:43:38.185Z,39.22
2022-11-30T07:46:05.365Z,34.25
2022-11-30T07:48:32.018Z,32.63
2022-11-30T07:51:12.297Z,31.55
2022-11-30T07:53:38.883Z,30.65
2022-11-30T07:56:06.954Z,33.42
2022-11-30T07:58:33.553Z,29.70
2022-11-30T08:01:07.524Z,28.35
2022-11-30T08:03:37.133Z,27.58
2022-11-30T08:06:15.339Z,25.83
2022-11-30T08:08:43.830Z,28.13
2022-11-30T08:11:14.070Z,27.92
2022-11-30T08:13:40.745Z,30.35
2022-11-30T08:16:15.457Z,29.30
2022-11-30T08:18:42.325Z,29.25
2022-11-30T08:21:10.440Z,27.67
2022-11-30T08:23:41.897Z,30.98
2022-11-30T08:26:11.832Z,27.20
2022-11-30T08:28:38.552Z,28.80
2022-11-30T08:31:08.190Z,28.77
2022-11-30T08:33:35.726Z,25.90
2022-11-30T08:36:11.390Z,26.60
2022-11-30T08:38:38.769Z,27.52
2022-11-30T08:41:06.120Z,27.33
2022-11-30T08:43:32.895Z,28.60
2022-11-30T08:45:59.788Z,29.27
2022-11-30T08:48:26.454Z,28.80
2022-11-30T08:50:52.984Z,26.02
2022-11-30T08:53:19.547Z,27.10
2022-11-30T08:55:58.066Z,30.45
2022-11-30T08:58:25.483Z,29.58
2022-11-30T09:03:23.683Z,26.10
2022-11-30T09:05:50.237Z,29.42
2022-11-30T09:08:16.872Z,26.60
2022-11-30T09:10:43.441Z,27.50
2022-11-30T09:13:10.043Z,30.25
2022-11-30T09:15:36.612Z,24.92
2022-11-30T09:18:03.241Z,24.98
2022-11-30T09:20:29.813Z,26.27
2022-11-30T09:22:56.399Z,24.20
2022-11-30T09:25:22.940Z,27.58
2022-11-30T09:27:49.523Z,22.50
2022-11-30T09:30:16.255Z,25.60
2022-11-30T09:32:42.854Z,25.85
2022-11-30T09:35:12.807Z,23.73
2022-11-30T09:37:40.320Z,23.23
2022-11-30T09:40:07.581Z,24.73
2022-11-30T09:42:57.762Z,25.40
2022-11-30T09:45:28.677Z,25.05
2022-11-30T09:48:23.621Z,26.20
2022-11-30T09:50:50.152Z,25.67
2022-11-30T09:53:29.707Z,26.65
2022-11-30T09:55:56.591Z,26.48
2022-11-30T09:58:28.607Z,22.75
2022-11-30T10:00:55.128Z,25.20
2022-11-30T10:03:22.875Z,22.95
2022-11-30T10:05:56.792Z,24.65
2022-11-30T10:08:38.796Z,23.70
2022-11-30T10:11:39.228Z,26.60
2022-11-30T10:14:24.533Z,24.70
2022-11-30T10:16:58.354Z,23.85
2022-11-30T10:19:43.877Z,24.05
2022-11-30T10:22:27.231Z,26.45
2022-11-30T10:27:52.637Z,25.23
2022-11-30T10:30:26.850Z,25.70
2022-11-30T10:32:55.109Z,25.63
2022-11-30T10:35:44.614Z,26.55
2022-11-30T10:38:37.190Z,28.48
2022-11-30T10:41:16.637Z,25.77
2022-11-30T10:43:48.178Z,24.33
2022-11-30T10:46:36.676Z,27.88
2022-11-30T10:49:12.416Z,25.80
2022-11-30T10:51:40.188Z,23.95
2022-11-30T10:54:18.976Z,24.17
2022-11-30T10:56:46.040Z,24.67
2022-11-30T10:59:28.029Z,24.63
2022-11-30T11:01:54.770Z,21.98
2022-11-30T11:04:23.433Z,22.42
2022-11-30T11:07:01.618Z,17.42
2022-11-30T11:09:31.363Z,19.17
2022-11-30T11:12:19.184Z,19.48
2022-11-30T11:14:45.761Z,20.10
2022-11-30T11:17:18.374Z,17.83
2022-11-30T11:19:46.503Z,19.40
2022-11-30T11:22:13.151Z,18.70
2022-11-30T11:24:39.690Z,18.48
2022-11-30T11:27:06.267Z,18.58
2022-11-30T11:29:34.510Z,18.63
2022-11-30T11:32:15.677Z,20.67
2022-11-30T11:34:47.973Z,17.02
2022-11-30T11:37:19.982Z,17.10
2022-11-30T11:39:55.459Z,22.30
2022-11-30T11:42:22.614Z,20.38
2022-11-30T11:44:53.051Z,19.38
2022-11-30T11:47:27.420Z,20.27
2022-11-30T11:50:12.298Z,19.85
2022-11-30T11:52:38.920Z,18.92
2022-11-30T11:55:06.532Z,21.23
2022-11-30T11:57:57.456Z,18.95
2022-11-30T12:00:25.424Z,20.50
2022-11-30T12:03:29.704Z,19.70
2022-11-30T12:06:15.763Z,22.05
2022-11-30T12:08:55.439Z,19.80
2022-11-30T12:11:43.770Z,21.80
2022-11-30T12:14:15.194Z,21.92
2022-11-30T12:17:20.352Z,22.13
2022-11-30T12:19:52.716Z,24.63
2022-11-30T12:22:53.376Z,23.38
2022-11-30T12:25:42.439Z,22.00
2022-11-30T12:28:31.374Z,22.23
2022-11-30T12:31:10.737Z,26.15
2022-11-30T12:33:59.407Z,21.60
2022-11-30T12:36:32.042Z,20.55
2022-11-30T12:39:00.756Z,19.83
2022-11-30T12:41:33.525Z,18.02
2022-11-30T12:44:09.205Z,17.25
2022-11-30T12:46:59.925Z,15.93
2022-11-30T12:49:30.471Z,15.80
2022-11-30T12:52:33.610Z,16.67
2022-11-30T12:55:21.767Z,17.25
2022-11-30T12:57:50.960Z,18.70
2022-11-30T13:00:20.540Z,19.77
2022-11-30T13:03:05.413Z,18.25
2022-11-30T13:05:38.345Z,20.63
2022-11-30T13:08:05.862Z,21.67
2022-11-30T13:10:41.377Z,19.58
2022-11-30T13:13:12.975Z,18.17
2022-11-30T13:15:39.766Z,17.27
2022-11-30T13:18:07.093Z,17.77
2022-11-30T13:20:50.343Z,19.60
2022-11-30T13:26:26.773Z,19.30
2022-11-30T13:28:57.172Z,14.98
2022-11-30T13:31:39.260Z,15.93
2022-11-30T13:34:28.525Z,14.60
2022-11-30T13:37:17.422Z,15.15
2022-11-30T13:39:54.153Z,13.55
2022-11-30T13:42:40.776Z,12.23
2022-11-30T13:45:13.503Z,14.00
2022-11-30T13:47:42.017Z,15.30
2022-11-30T13:50:17.079Z,14.35
2022-11-30T13:52:59.057Z,14.77
2022-11-30T13:55:51.935Z,17.85
2022-11-30T13:58:19.932Z,16.40
2022-11-30T14:00:48.874Z,16.77
2022-11-30T14:03:21.503Z,17.15
2022-11-30T14:05:54.952Z,19.00
2022-11-30T14:08:21.430Z,17.23
2022-11-30T14:10:49.701Z,17.80
2022-11-30T14:13:21.119Z,17.73
2022-11-30T14:15:47.643Z,19.88
2022-11-30T14:18:20.217Z,18.00
2022-11-30T14:20:52.687Z,18.58
2022-11-30T14:23:37.122Z,17.83
2022-11-30T14:26:11.000Z,15.95
2022-11-30T14:28:45.828Z,17.20
2022-11-30T14:31:17.918Z,20.75
2022-11-30T14:34:14.813Z,19.23
2022-11-30T14:36:48.477Z,21.92
2022-11-30T14:39:27.145Z,20.80
2022-11-30T14:41:54.584Z,20.65
2022-11-30T14:44:21.116Z,24.67
2022-11-30T14:46:47.753Z,26.27
2022-11-30T14:49:19.435Z,28.20
2022-11-30T14:51:49.288Z,28.77
2022-11-30T14:54:34.815Z,26.95
2022-11-30T14:57:39.255Z,26.98
2022-11-30T15:00:06.640Z,25.27
2022-11-30T15:02:38.681Z,26.55
2022-11-30T15:05:07.085Z,24.10
2022-11-30T15:07:35.227Z,25.67
2022-11-30T15:10:19.297Z,27.13
2022-11-30T15:12:45.961Z,25.05
2022-11-30T15:15:19.715Z,27.00
2022-11-30T15:17:52.354Z,30.92
2022-11-30T15:20:46.304Z,26.35
2022-11-30T15:23:15.530Z,25.25
2022-11-30T15:25:44.468Z,28.35
2022-11-30T15:28:12.612Z,28.35
2022-11-30T15:30:40.729Z,24.98
2022-11-30T15:33:11.675Z,27.23
2022-11-30T15:35:57.234Z,30.40
2022-11-30T15:38:25.682Z,26.63
2022-11-30T15:40:55.200Z,27.05
2022-11-30T15:43:23.989Z,28.63
2022-11-30T15:45:58.311Z,27.00
2022-11-30T15:48:32.071Z,29.05
2022-11-30T15:50:59.792Z,32.40
2022-11-30T15:53:34.861Z,25.67
2022-11-30T15:56:08.738Z,28.33
2022-11-30T15:58:46.196Z,26.17
2022-11-30T16:01:14.388Z,29.85
2022-11-30T16:03:56.874Z,24.85
2022-11-30T16:06:35.774Z,27.00
2022-11-30T16:09:23.331Z,30.35
2022-11-30T16:11:53.001Z,27.77
2022-11-30T16:14:19.572Z,30.83
2022-11-30T16:16:46.769Z,30.08
2022-11-30T16:19:13.449Z,29.35
2022-11-30T16:21:40.059Z,30.40
2022-11-30T16:24:07.138Z,31.95
2022-11-30T16:26:50.411Z,32.10
2022-11-30T16:29:17.619Z,31.55
2022-11-30T16:31:44.242Z,29.60
2022-11-30T16:34:11.952Z,30.90
2022-11-30T16:36:39.112Z,31.17
2022-11-30T16:39:05.916Z,32.97
2022-11-30T16:41:32.494Z,31.02
2022-11-30T16:43:59.044Z,32.35
2022-11-30T16:46:27.512Z,32.67
2022-11-30T16:48:54.325Z,31.15
2022-11-30T16:51:29.565Z,32.97
2022-11-30T16:53:57.701Z,29.98
2022-11-30T16:56:24.353Z,28.77
2022-11-30T16:58:50.977Z,29.88
2022-11-30T17:01:21.643Z,29.80
2022-11-30T17:03:50.155Z,27.65
2022-11-30T17:06:19.011Z,23.40
2022-11-30T17:08:46.540Z,27.83
2022-11-30T17:11:24.479Z,28.15
2022-11-30T17:13:51.046Z,24.80
2022-11-30T17:16:17.825Z,27.77
2022-11-30T17:18:44.591Z,25.55
2022-11-30T17:21:19.764Z,22.40
2022-11-30T17:23:46.355Z,22.50
2022-11-30T17:26:13.325Z,18.63
2022-11-30T17:28:41.661Z,20.90
2022-11-30T17:31:09.064Z,17.02
2022-11-30T17:33:36.062Z,18.63
2022-11-30T17:36:05.375Z,17.38
2022-11-30T17:38:34.616Z,18.40
2022-11-30T17:41:04.784Z,17.25
2022-11-30T17:43:31.515Z,17.08
2022-11-30T17:45:58.085Z,17.02
2022-11-30T17:48:24.693Z,19.38
2022-11-30T17:50:52.526Z,21.63
2022-11-30T17:53:19.281Z,20.92
2022-11-30T17:55:46.770Z,21.77
2022-11-30T17:58:13.410Z,17.73
2022-11-30T18:00:39.994Z,19.58
2022-11-30T18:03:06.673Z,18.85
2022-11-30T18:05:33.358Z,17.02
2022-11-30T18:08:00.537Z,17.88
2022-11-30T18:10:27.255Z,16.95
2022-11-30T18:12:53.889Z,18.58
2022-11-30T18:15:20.480Z,20.67
2022-11-30T18:17:47.041Z,19.35
2022-11-30T18:20:13.632Z,23.85
2022-11-30T18:22:40.282Z,22.13
2022-11-30T18:25:07.289Z,23.90
2022-11-30T18:27:33.934Z,22.08
2022-11-30T18:30:00.459Z,25.40
2022-11-30T18:32:27.010Z,26.25
2022-11-30T18:34:53.587Z,22.98
2022-11-30T18:37:20.143Z,23.02
2022-11-30T18:39:46.690Z,25.40
2022-11-30T18:42:13.453Z,23.13
2022-11-30T18:44:40.083Z,22.48
2022-11-30T18:47:06.675Z,24.30
2022-11-30T18:49:33.200Z,22.27
2022-11-30T18:51:59.808Z,24.30
2022-11-30T18:54:26.598Z,23.38
2022-11-30T18:56:53.213Z,23.48
2022-11-30T18:59:19.824Z,21.75
2022-11-30T19:01:46.645Z,27.35
2022-11-30T19:04:13.395Z,29.42
2022-11-30T19:06:41.123Z,26.33
2022-11-30T19:09:10.086Z,24.58
2022-11-30T19:11:37.323Z,27.20
2022-11-30T19:14:04.200Z,29.23
2022-11-30T19:16:31.756Z,23.85
2022-11-30T19:19:03.709Z,26.17
2022-11-30T19:21:30.406Z,27.23
2022-11-30T19:23:57.936Z,24.55
2022-11-30T19:26:24.578Z,26.17
2022-11-30T19:28:51.150Z,24.70
2022-11-30T19:31:18.933Z,26.35
2022-11-30T19:33:47.632Z,26.70
2022-11-30T19:36:19.234Z,26.77
2022-11-30T19:38:45.813Z,26.42
2022-11-30T19:41:15.040Z,24.33
2022-11-30T19:43:42.872Z,26.95
2022-11-30T19:46:14.053Z,20.42
2022-11-30T19:48:41.186Z,23.80
2022-11-30T19:51:13.397Z,21.50
2022-11-30T19:53:43.641Z,23.02
2022-11-30T19:56:14.833Z,22.92
2022-11-30T19:58:42.485Z,21.95
2022-11-30T20:01:12.854Z,19.77
2022-11-30T20:03:39.583Z,22.85
2022-11-30T20:06:06.383Z,22.05
2022-11-30T20:08:32.963Z,22.98
2022-11-30T20:10:59.533Z,22.88
2022-11-30T20:13:26.407Z,21.67
2022-11-30T20:15:53.016Z,20.02
2022-11-30T20:18:19.584Z,23.65
2022-11-30T20:20:46.163Z,21.50
2022-11-30T20:23:12.759Z,24.70
2022-11-30T20:25:39.349Z,25.42
2022-11-30T20:28:09.643Z,22.42
2022-11-30T20:30:38.955Z,21.42
2022-11-30T20:33:05.552Z,19.23
2022-11-30T20:35:32.119Z,20.27
2022-11-30T20:37:58.690Z,19.45
2022-11-30T20:40:25.239Z,19.70
2022-11-30T20:42:52.708Z,21.02
2022-11-30T20:45:19.247Z,22.73
2022-11-30T20:47:45.818Z,20.85
2022-11-30T20:50:13.228Z,19.77
2022-11-30T20:52:39.804Z,19.92
2022-11-30T20:55:06.891Z,18.25
2022-11-30T20:57:33.463Z,20.33
2022-11-30T21:00:00.068Z,19.58
2022-11-30T21:02:26.689Z,16.42
2022-11-30T21:04:53.354Z,18.88
2022-11-30T21:07:19.997Z,17.45
2022-11-30T21:09:46.714Z,18.00
2022-11-30T21:12:13.287Z,18.42
2022-11-30T21:14:39.958Z,18.42
2022-11-30T21:17:06.595Z,18.60
2022-11-30T21:19:33.721Z,19.45
2022-11-30T21:22:00.364Z,22.17
2022-11-30T21:24:26.921Z,19.27
2022-11-30T21:26:53.505Z,19.35
2022-11-30T21:29:20.227Z,21.67
2022-11-30T21:31:47.287Z,20.83
2022-11-30T21:34:14.017Z,20.67
2022-11-30T21:36:40.619Z,19.27
2022-11-30T21:39:08.043Z,17.98
2022-11-30T21:41:36.427Z,19.33
2022-11-30T21:44:03.914Z,20.67
2022-11-30T21:46:30.562Z,19.25
2022-11-30T21:48:57.310Z,20.60
2022-11-30T21:51:25.634Z,19.88
2022-11-30T21:53:54.524Z,21.90
2022-11-30T21:56:23.092Z,21.45
2022-11-30T21:58:50.301Z,21.80
2022-11-30T22:01:24.925Z,22.42
2022-11-30T22:03:53.968Z,23.38
2022-11-30T22:06:20.735Z,21.67
2022-11-30T22:08:47.335Z,22.20
2022-11-30T22:11:23.819Z,21.80
2022-11-30T22:13:52.059Z,22.58
2022-11-30T22:16:19.081Z,23.55
2022-11-30T22:18:46.108Z,24.77
2022-11-30T22:21:14.836Z,25.45
2022-11-30T22:23:43.654Z,24.45
2022-11-30T22:26:16.046Z,25.25
2022-11-30T22:28:44.348Z,25.90
2022-11-30T22:31:13.356Z,27.95
2022-11-30T22:33:41.244Z,25.83
2022-11-30T22:36:08.827Z,26.75
2022-11-30T22:38:35.434Z,25.52
2022-11-30T22:41:10.579Z,30.25
2022-11-30T22:43:37.170Z,28.80
2022-11-30T22:46:07.659Z,27.88
2022-11-30T22:48:34.595Z,29.42
2022-11-30T22:51:08.514Z,29.52
2022-11-30T22:53:36.219Z,27.45
2022-11-30T22:56:07.931Z,29.10
2022-11-30T22:58:34.863Z,28.35
2022-11-30T23:01:16.594Z,31.70
2022-11-30T23:03:43.785Z,29.33
2022-11-30T23:06:11.926Z,31.42
2022-11-30T23:08:38.982Z,30.80
2022-11-30T23:11:09.656Z,29.58
2022-11-30T23:13:36.597Z,31.80
2022-11-30T23:16:04.827Z,29.17
2022-11-30T23:18:37.611Z,33.17
2022-11-30T23:21:09.396Z,32.25
2022-11-30T23:23:35.983Z,30.35
2022-11-30T23:26:13.187Z,31.92
2022-11-30T23:28:41.271Z,32.30
2022-11-30T23:31:33.891Z,31.25
2022-11-30T23:33:59.344Z,33.25
2022-11-30T23:36:25.979Z,34.40
2022-11-30T23:38:57.859Z,33.28
2022-11-30T23:41:25.164Z,31.48
2022-11-30T23:43:51.862Z,32.55
2022-11-30T23:46:18.501Z,33.25
2022-11-30T23:48:45.132Z,36.33
2022-11-30T23:51:11.876Z,35.05
2022-11-30T23:53:38.683Z,34.78
2022-11-30T23:56:07.280Z,33.90
2022-11-30T23:58:34.280Z,35.25
